createdAt,value
2019-06-07T00:01:51.998Z,23.26
2019-06-07T00:04:42.416Z,23.30
2019-06-07T00:07:32.531Z,23.25
2019-06-07T00:10:36.065Z,23.24
2019-06-07T00:13:18.788Z,23.27
2019-06-07T00:16:08.730Z,23.27
2019-06-07T00:18:59.393Z,23.17
2019-06-07T00:24:41.234Z,23.22
2019-06-07T00:27:31.414Z,23.23
2019-06-07T00:30:50.625Z,23.23
2019-06-07T00:33:16.940Z,23.15
2019-06-07T00:36:04.937Z,23.15
2019-06-07T00:38:54.983Z,23.16
2019-06-07T00:41:45.189Z,23.13
2019-06-07T00:44:35.491Z,23.12
2019-06-07T00:47:26.000Z,23.06
2019-06-07T00:50:20.427Z,23.03
2019-06-07T00:53:15.480Z,23.02
2019-06-07T00:56:00.055Z,22.98
2019-06-07T00:59:10.420Z,23.00
2019-06-07T01:01:42.281Z,23.01
2019-06-07T01:04:32.592Z,23.05
2019-06-07T01:07:24.481Z,23.06
2019-06-07T01:10:22.893Z,23.04
2019-06-07T01:13:07.968Z,22.93
2019-06-07T01:15:58.153Z,23.04
2019-06-07T01:18:51.280Z,23.05
2019-06-07T01:21:40.190Z,22.97
2019-06-07T01:24:30.362Z,23.02
2019-06-07T01:27:22.673Z,23.03
2019-06-07T01:30:12.631Z,23.10
2019-06-07T01:33:02.893Z,23.03
2019-06-07T01:35:53.114Z,23.05
2019-06-07T01:38:43.466Z,22.90
2019-06-07T01:41:34.713Z,22.92
2019-06-07T01:44:27.806Z,22.88
2019-06-07T01:47:17.828Z,22.91
2019-06-07T01:50:10.997Z,22.83
2019-06-07T01:53:01.329Z,22.79
2019-06-07T01:55:51.741Z,22.88
2019-06-07T01:58:41.703Z,22.98
2019-06-07T02:01:35.310Z,22.99
2019-06-07T02:04:27.307Z,22.97
2019-06-07T02:07:15.331Z,22.96
2019-06-07T02:10:05.783Z,22.93
2019-06-07T02:12:55.924Z,22.88
2019-06-07T02:15:46.142Z,22.92
2019-06-07T02:18:36.445Z,22.89
2019-06-07T02:21:30.425Z,22.85
2019-06-07T02:24:18.303Z,22.88
2019-06-07T02:27:08.718Z,22.83
2019-06-07T02:29:59.057Z,22.79
2019-06-07T02:32:49.451Z,22.74
2019-06-07T02:35:40.995Z,22.78
2019-06-07T02:38:37.086Z,22.78
2019-06-07T02:41:26.258Z,22.79
2019-06-07T02:44:14.350Z,22.66
2019-06-07T02:47:04.377Z,22.57
2019-06-07T02:49:54.553Z,22.63
2019-06-07T02:52:44.570Z,22.67
2019-06-07T02:56:26.173Z,22.57
2019-06-07T02:58:32.422Z,22.58
2019-06-07T03:01:18.464Z,22.58
2019-06-07T03:04:08.857Z,22.56
2019-06-07T03:06:59.418Z,22.58
2019-06-07T03:09:49.532Z,22.62
2019-06-07T03:12:40.353Z,22.67
2019-06-07T03:15:41.509Z,22.57
2019-06-07T03:18:41.781Z,22.71
2019-06-07T03:21:41.759Z,22.77
2019-06-07T03:24:33.665Z,22.81
2019-06-07T03:27:48.605Z,22.88
2019-06-07T03:30:39.108Z,22.86
2019-06-07T03:33:09.445Z,22.85
2019-06-07T03:36:07.117Z,22.98
2019-06-07T03:38:51.173Z,23.11
2019-06-07T03:42:04.666Z,23.25
2019-06-07T03:44:37.802Z,23.41
2019-06-07T03:47:30.627Z,23.54
2019-06-07T03:50:18.725Z,23.67
2019-06-07T03:53:10.560Z,23.84
2019-06-07T03:56:01.175Z,23.97
2019-06-07T03:58:51.724Z,24.14
2019-06-07T04:01:42.922Z,24.29
2019-06-07T04:04:37.808Z,24.47
2019-06-07T04:07:25.913Z,24.66
2019-06-07T04:10:16.815Z,24.83
2019-06-07T04:13:07.852Z,25.01
2019-06-07T04:15:58.818Z,25.19
2019-06-07T04:18:49.748Z,25.38
2019-06-07T04:21:42.826Z,25.59
2019-06-07T04:24:34.681Z,25.81
2019-06-07T04:27:25.382Z,26.07
2019-06-07T04:30:21.030Z,26.32
2019-06-07T04:33:11.733Z,26.58
2019-06-07T04:36:02.506Z,26.96
2019-06-07T04:38:54.037Z,27.08
2019-06-07T04:41:46.164Z,27.63
2019-06-07T04:44:40.666Z,28.14
2019-06-07T04:47:30.266Z,28.37
2019-06-07T04:50:22.014Z,29.32
2019-06-07T04:53:12.954Z,30.19
2019-06-07T04:56:03.556Z,31.14
2019-06-07T04:58:54.430Z,31.79
2019-06-07T05:01:45.134Z,31.79
2019-06-07T05:04:37.170Z,32.92
2019-06-07T05:07:27.536Z,34.42
2019-06-07T05:10:18.213Z,34.34
2019-06-07T05:13:08.814Z,35.18
2019-06-07T05:15:59.516Z,36.77
2019-06-07T05:18:50.028Z,37.78
2019-06-07T05:22:01.920Z,37.99
2019-06-07T05:24:37.668Z,38.29
2019-06-07T05:27:25.426Z,39.29
2019-06-07T05:30:59.826Z,39.87
2019-06-07T05:33:15.428Z,39.41
2019-06-07T05:36:05.908Z,39.28
2019-06-07T05:38:56.484Z,39.42
2019-06-07T05:41:47.000Z,38.78
2019-06-07T05:44:39.877Z,38.26
2019-06-07T05:47:29.344Z,38.42
2019-06-07T05:53:11.872Z,39.62
2019-06-07T05:56:02.353Z,40.81
2019-06-07T05:58:52.944Z,41.89
2019-06-07T06:01:53.153Z,42.29
2019-06-07T06:04:36.082Z,41.55
2019-06-07T06:07:27.290Z,40.80
2019-06-07T06:10:18.083Z,41.34
2019-06-07T06:13:08.926Z,39.83
2019-06-07T06:16:01.976Z,40.19
2019-06-07T06:18:51.433Z,38.91
2019-06-07T06:21:46.060Z,39.56
2019-06-07T06:24:33.934Z,38.88
2019-06-07T06:30:19.738Z,40.65
2019-06-07T06:33:27.089Z,41.20
2019-06-07T06:36:02.169Z,41.86
2019-06-07T06:38:53.620Z,42.90
2019-06-07T06:41:54.459Z,43.95
2019-06-07T06:44:40.219Z,43.73
2019-06-07T06:47:28.345Z,42.40
2019-06-07T06:50:19.345Z,43.12
2019-06-07T06:53:15.211Z,43.14
2019-06-07T06:56:05.809Z,44.18
2019-06-07T07:01:50.553Z,43.89
2019-06-07T07:04:41.964Z,43.71
2019-06-07T07:07:32.381Z,43.62
2019-06-07T07:10:37.851Z,43.69
2019-06-07T07:13:28.090Z,42.95
2019-06-07T07:16:18.392Z,42.11
2019-06-07T07:19:08.895Z,41.71
2019-06-07T07:21:59.570Z,40.91
2019-06-07T07:24:53.389Z,38.23
2019-06-07T07:27:42.495Z,37.53
2019-06-07T07:30:49.963Z,37.70
2019-06-07T07:36:39.318Z,35.56
2019-06-07T07:39:24.199Z,34.18
2019-06-07T07:42:21.278Z,34.18
2019-06-07T07:45:07.513Z,34.10
2019-06-07T07:48:14.776Z,34.10
2019-06-07T07:50:59.247Z,33.31
2019-06-07T07:53:52.468Z,32.65
2019-06-07T07:56:36.272Z,33.10
2019-06-07T07:59:41.115Z,33.03
2019-06-07T08:02:19.409Z,33.03
2019-06-07T08:05:22.468Z,33.01
2019-06-07T08:08:05.195Z,33.51
2019-06-07T08:10:56.435Z,33.40
2019-06-07T08:13:48.115Z,33.40
2019-06-07T08:16:38.589Z,33.79
2019-06-07T08:19:29.560Z,34.17
2019-06-07T08:22:20.579Z,34.17
2019-06-07T08:25:11.873Z,31.88
2019-06-07T08:28:02.595Z,31.88
2019-06-07T08:31:02.446Z,32.51
2019-06-07T08:33:45.736Z,33.37
2019-06-07T08:36:42.406Z,33.34
2019-06-07T08:39:28.986Z,33.33
2019-06-07T08:42:25.272Z,33.33
2019-06-07T08:45:12.529Z,32.02
2019-06-07T08:48:09.540Z,32.16
2019-06-07T08:51:00.855Z,32.79
2019-06-07T08:54:08.459Z,33.17
2019-06-07T08:56:43.473Z,33.39
2019-06-07T08:59:35.743Z,33.39
2019-06-07T09:02:26.763Z,33.38
2019-06-07T09:05:17.890Z,32.03
2019-06-07T09:08:28.339Z,31.61
2019-06-07T09:11:06.290Z,31.34
2019-06-07T09:13:57.052Z,31.30
2019-06-07T09:16:46.399Z,31.55
2019-06-07T09:19:37.423Z,31.66
2019-06-07T09:22:28.361Z,31.19
2019-06-07T09:25:21.627Z,31.49
2019-06-07T09:28:18.851Z,31.30
2019-06-07T09:31:09.764Z,31.70
2019-06-07T09:33:57.817Z,30.84
2019-06-07T09:36:49.147Z,31.18
2019-06-07T09:39:40.012Z,30.41
2019-06-07T09:42:30.946Z,30.46
2019-06-07T09:45:21.796Z,29.96
2019-06-07T09:48:16.088Z,29.76
2019-06-07T09:51:09.748Z,28.65
2019-06-07T09:53:58.536Z,28.89
2019-06-07T09:56:48.983Z,28.61
2019-06-07T09:59:39.778Z,28.47
2019-06-07T10:02:30.503Z,28.84
2019-06-07T10:05:21.333Z,28.78
2019-06-07T10:08:41.390Z,28.96
2019-06-07T10:11:04.715Z,29.03
2019-06-07T10:13:55.760Z,28.89
2019-06-07T10:16:48.036Z,28.13
2019-06-07T10:19:39.091Z,28.29
2019-06-07T10:22:30.025Z,28.57
2019-06-07T10:25:20.789Z,29.14
2019-06-07T10:28:11.580Z,28.97
2019-06-07T10:31:04.525Z,28.58
2019-06-07T10:33:56.117Z,28.28
2019-06-07T10:36:46.734Z,28.59
2019-06-07T10:39:48.190Z,28.61
2019-06-07T10:42:29.944Z,28.57
2019-06-07T10:45:20.752Z,28.65
2019-06-07T10:48:11.791Z,28.51
2019-06-07T10:51:04.086Z,28.57
2019-06-07T10:53:55.330Z,28.70
2019-06-07T10:56:46.361Z,28.87
2019-06-07T10:59:37.459Z,28.56
2019-06-07T11:02:28.444Z,28.81
2019-06-07T11:05:19.417Z,28.68
2019-06-07T11:08:10.428Z,29.08
2019-06-07T11:11:01.091Z,29.17
2019-06-07T11:13:52.614Z,29.11
2019-06-07T11:16:43.351Z,29.02
2019-06-07T11:19:33.920Z,28.44
2019-06-07T11:22:24.536Z,28.58
2019-06-07T11:25:18.552Z,28.60
2019-06-07T11:28:10.597Z,28.71
2019-06-07T11:31:01.522Z,28.95
2019-06-07T11:33:52.499Z,29.03
2019-06-07T11:36:43.301Z,29.05
2019-06-07T11:39:34.236Z,28.92
2019-06-07T11:42:25.100Z,28.72
2019-06-07T11:45:15.984Z,28.63
2019-06-07T11:48:07.189Z,28.60
2019-06-07T11:50:58.213Z,28.62
2019-06-07T11:53:49.001Z,28.49
2019-06-07T11:56:40.052Z,28.58
2019-06-07T11:59:31.132Z,28.84
2019-06-07T12:02:22.007Z,28.61
2019-06-07T12:05:16.558Z,28.70
2019-06-07T12:08:05.414Z,28.79
2019-06-07T12:10:56.460Z,28.73
2019-06-07T12:13:47.382Z,28.63
2019-06-07T12:16:38.076Z,28.66
2019-06-07T12:19:28.849Z,28.48
2019-06-07T12:22:20.125Z,28.38
2019-06-07T12:25:12.387Z,28.62
2019-06-07T12:28:03.512Z,28.69
2019-06-07T12:30:55.289Z,28.71
2019-06-07T12:33:45.905Z,28.81
2019-06-07T12:36:36.716Z,28.84
2019-06-07T12:39:27.322Z,28.55
2019-06-07T12:42:18.555Z,28.38
2019-06-07T12:45:09.506Z,28.48
2019-06-07T12:48:01.447Z,28.49
2019-06-07T12:50:52.270Z,28.69
2019-06-07T12:53:42.946Z,28.62
2019-06-07T12:56:33.905Z,28.52
2019-06-07T12:59:24.930Z,28.63
2019-06-07T13:02:16.391Z,28.75
2019-06-07T13:05:07.834Z,28.54
2019-06-07T13:07:58.937Z,28.47
2019-06-07T13:10:49.815Z,28.59
2019-06-07T13:13:40.593Z,28.79
2019-06-07T13:16:31.472Z,28.67
2019-06-07T13:19:22.408Z,28.84
2019-06-07T13:22:13.266Z,29.11
2019-06-07T13:25:04.102Z,29.30
2019-06-07T13:27:55.052Z,29.17
2019-06-07T13:30:45.615Z,29.57
2019-06-07T13:33:38.795Z,29.76
2019-06-07T13:36:28.736Z,30.02
2019-06-07T13:39:23.217Z,30.24
2019-06-07T13:42:11.775Z,30.38
2019-06-07T13:45:02.690Z,30.44
2019-06-07T13:47:53.275Z,30.45
2019-06-07T13:50:44.234Z,30.59
2019-06-07T13:53:35.205Z,30.57
2019-06-07T13:56:26.272Z,30.65
2019-06-07T13:59:18.566Z,30.47
2019-06-07T14:02:09.541Z,30.59
2019-06-07T14:05:00.561Z,30.69
2019-06-07T14:07:51.623Z,30.76
2019-06-07T14:10:42.535Z,30.87
2019-06-07T14:13:33.481Z,30.88
2019-06-07T14:16:24.378Z,30.96
2019-06-07T14:19:15.325Z,31.00
2019-06-07T14:22:05.903Z,30.71
2019-06-07T14:24:56.621Z,30.54
2019-06-07T14:27:47.444Z,30.57
2019-06-07T14:30:38.703Z,30.56
2019-06-07T14:33:30.764Z,30.49
2019-06-07T14:36:22.717Z,30.33
2019-06-07T14:39:13.629Z,30.23
2019-06-07T14:42:09.689Z,30.01
2019-06-07T14:44:58.507Z,29.97
2019-06-07T14:47:49.495Z,30.01
2019-06-07T14:50:40.050Z,29.95
2019-06-07T14:53:30.994Z,29.97
2019-06-07T14:56:21.562Z,30.00
2019-06-07T14:59:12.448Z,29.98
2019-06-07T15:02:03.382Z,29.89
2019-06-07T15:04:54.534Z,30.04
2019-06-07T15:07:45.446Z,30.11
2019-06-07T15:10:36.855Z,30.16
2019-06-07T15:13:29.310Z,30.35
2019-06-07T15:16:20.008Z,30.46
2019-06-07T15:19:10.872Z,30.55
2019-06-07T15:22:01.725Z,30.63
2019-06-07T15:24:52.319Z,30.66
2019-06-07T15:27:43.152Z,30.64
2019-06-07T15:30:33.763Z,30.64
2019-06-07T15:33:24.411Z,30.71
2019-06-07T15:36:15.293Z,30.64
2019-06-07T15:39:07.637Z,30.32
2019-06-07T15:41:59.417Z,30.39
2019-06-07T15:44:50.258Z,30.33
2019-06-07T15:47:40.940Z,30.24
2019-06-07T15:50:34.183Z,30.06
2019-06-07T15:53:24.918Z,30.00
2019-06-07T15:56:15.541Z,30.07
2019-06-07T15:59:06.471Z,30.01
2019-06-07T16:01:57.434Z,30.15
2019-06-07T16:04:48.472Z,30.25
2019-06-07T16:07:40.519Z,30.37
2019-06-07T16:10:32.621Z,30.43
2019-06-07T16:13:23.728Z,30.37
2019-06-07T16:16:14.749Z,30.43
2019-06-07T16:19:05.718Z,30.57
2019-06-07T16:21:56.254Z,30.58
2019-06-07T16:24:47.106Z,30.53
2019-06-07T16:27:40.735Z,30.18
2019-06-07T16:30:31.836Z,30.02
2019-06-07T16:33:22.492Z,29.82
2019-06-07T16:36:13.470Z,29.65
2019-06-07T16:39:04.268Z,29.43
2019-06-07T16:41:55.012Z,29.36
2019-06-07T16:44:45.858Z,29.04
2019-06-07T16:47:38.748Z,28.95
2019-06-07T16:50:29.948Z,29.19
2019-06-07T16:53:20.740Z,29.33
2019-06-07T16:56:11.579Z,29.50
2019-06-07T16:59:02.417Z,29.56
2019-06-07T17:01:53.317Z,29.48
2019-06-07T17:04:44.182Z,29.28
2019-06-07T17:07:35.929Z,29.04
2019-06-07T17:10:27.055Z,28.85
2019-06-07T17:13:32.387Z,28.76
2019-06-07T17:16:10.300Z,28.72
2019-06-07T17:19:01.997Z,28.53
2019-06-07T17:21:52.831Z,28.59
2019-06-07T17:24:43.729Z,28.71
2019-06-07T17:27:34.591Z,28.70
2019-06-07T17:30:25.442Z,28.74
2019-06-07T17:33:16.010Z,28.78
2019-06-07T17:36:06.871Z,28.65
2019-06-07T17:38:57.560Z,28.68
2019-06-07T17:41:59.911Z,28.42
2019-06-07T17:44:40.919Z,28.34
2019-06-07T17:47:31.861Z,28.19
2019-06-07T17:50:23.099Z,27.82
2019-06-07T17:53:13.951Z,27.60
2019-06-07T17:56:04.647Z,27.62
2019-06-07T17:58:55.366Z,27.48
2019-06-07T18:02:07.118Z,27.43
2019-06-07T18:04:38.837Z,27.15
2019-06-07T18:07:29.496Z,27.02
2019-06-07T18:10:37.588Z,26.96
2019-06-07T18:13:28.339Z,26.87
2019-06-07T18:16:19.326Z,26.85
2019-06-07T18:19:10.171Z,26.88
2019-06-07T18:22:00.813Z,26.86
2019-06-07T18:24:52.716Z,26.91
2019-06-07T18:27:43.769Z,26.97
2019-06-07T18:30:34.620Z,27.00
2019-06-07T18:33:25.418Z,26.82
2019-06-07T18:36:16.815Z,26.90
2019-06-07T18:39:08.928Z,26.91
2019-06-07T18:42:00.250Z,27.02
2019-06-07T18:44:51.112Z,26.97
2019-06-07T18:47:43.044Z,26.83
2019-06-07T18:50:33.652Z,26.85
2019-06-07T18:53:24.463Z,26.74
2019-06-07T18:56:15.075Z,26.63
2019-06-07T18:59:05.853Z,26.66
2019-06-07T19:01:57.653Z,26.71
2019-06-07T19:04:48.306Z,26.70
2019-06-07T19:07:39.219Z,26.64
2019-06-07T19:10:30.026Z,26.47
2019-06-07T19:13:20.959Z,26.41
2019-06-07T19:16:12.017Z,26.44
2019-06-07T19:19:02.969Z,26.44
2019-06-07T19:21:54.053Z,26.53
2019-06-07T19:24:44.576Z,26.46
2019-06-07T19:27:36.406Z,26.46
2019-06-07T19:30:27.183Z,26.42
2019-06-07T19:33:18.472Z,26.42
2019-06-07T19:36:10.450Z,26.38
2019-06-07T19:39:02.126Z,26.35
2019-06-07T19:41:54.284Z,26.39
2019-06-07T19:44:54.358Z,26.49
2019-06-07T19:47:37.835Z,26.50
2019-06-07T19:50:28.814Z,26.55
2019-06-07T19:53:20.909Z,26.42
2019-06-07T19:56:12.217Z,25.58
2019-06-07T19:59:04.318Z,25.62
2019-06-07T20:01:57.875Z,25.71
2019-06-07T20:04:49.410Z,25.68
2019-06-07T20:07:40.095Z,25.87
2019-06-07T20:10:30.940Z,26.00
2019-06-07T20:13:21.798Z,26.13
2019-06-07T20:16:12.577Z,26.20
2019-06-07T20:19:04.015Z,26.28
2019-06-07T20:21:56.793Z,26.28
2019-06-07T20:24:49.149Z,26.16
2019-06-07T20:27:40.448Z,26.35
2019-06-07T20:30:31.479Z,26.22
2019-06-07T20:33:22.181Z,26.02
2019-06-07T20:36:13.017Z,26.15
2019-06-07T20:39:06.134Z,26.31
2019-06-07T20:41:59.534Z,26.35
2019-06-07T20:44:50.290Z,26.33
2019-06-07T20:47:41.130Z,26.37
2019-06-07T20:50:31.965Z,26.36
2019-06-07T20:53:22.784Z,26.33
2019-06-07T20:56:13.652Z,26.22
2019-06-07T20:59:04.807Z,26.05
2019-06-07T21:01:55.864Z,26.06
2019-06-07T21:04:46.646Z,25.89
2019-06-07T21:07:37.855Z,25.69
2019-06-07T21:10:28.419Z,25.72
2019-06-07T21:13:26.220Z,25.68
2019-06-07T21:16:17.182Z,25.64
2019-06-07T21:19:08.800Z,25.78
2019-06-07T21:22:00.411Z,25.75
2019-06-07T21:24:51.089Z,25.62
2019-06-07T21:27:42.723Z,25.66
2019-06-07T21:30:34.492Z,25.81
2019-06-07T21:33:37.541Z,25.90
2019-06-07T21:36:28.403Z,25.91
2019-06-07T21:39:27.644Z,25.67
2019-06-07T21:42:18.978Z,25.71
2019-06-07T21:45:11.805Z,25.67
2019-06-07T21:48:05.222Z,25.61
2019-06-07T21:50:56.837Z,25.67
2019-06-07T21:53:47.636Z,25.66
2019-06-07T21:56:38.542Z,25.53
2019-06-07T21:59:29.524Z,25.47
2019-06-07T22:02:23.764Z,25.45
2019-06-07T22:05:14.702Z,25.49
2019-06-07T22:08:08.242Z,25.46
2019-06-07T22:10:59.034Z,25.43
2019-06-07T22:13:49.931Z,25.47
2019-06-07T22:16:41.815Z,25.52
2019-06-07T22:19:33.211Z,25.57
2019-06-07T22:22:24.155Z,25.62
2019-06-07T22:25:15.202Z,25.56
2019-06-07T22:28:08.056Z,25.59
2019-06-07T22:31:00.335Z,25.60
2019-06-07T22:33:51.210Z,25.61
2019-06-07T22:36:42.291Z,25.63
2019-06-07T22:39:33.237Z,25.67
2019-06-07T22:42:24.207Z,25.61
2019-06-07T22:45:16.682Z,25.61
2019-06-07T22:48:07.562Z,25.67
2019-06-07T22:51:00.053Z,25.67
2019-06-07T22:53:50.900Z,25.67
2019-06-07T22:56:48.424Z,25.62
2019-06-07T22:59:39.008Z,25.68
2019-06-07T23:02:30.798Z,25.72
2019-06-07T23:05:21.747Z,25.78
2019-06-07T23:08:14.952Z,25.76
2019-06-07T23:11:05.922Z,25.83
2019-06-07T23:13:56.966Z,25.78
2019-06-07T23:16:55.407Z,25.66
2019-06-07T23:19:40.176Z,25.68
2019-06-07T23:22:31.196Z,25.67
2019-06-07T23:25:24.537Z,25.70
2019-06-07T23:28:14.837Z,25.62
2019-06-07T23:31:05.725Z,25.56
2019-06-07T23:33:57.165Z,25.50
2019-06-07T23:36:47.983Z,25.50
2019-06-07T23:39:38.801Z,25.39
2019-06-07T23:42:30.751Z,25.40
2019-06-07T23:45:21.830Z,25.42
2019-06-07T23:48:13.632Z,25.50
2019-06-07T23:51:04.327Z,25.58
2019-06-07T23:53:55.070Z,25.56
2019-06-07T23:56:45.718Z,25.51
2019-06-07T23:59:37.928Z,25.50
